Time;durP1;ratioP1;P1;durP2;ratioP2;P2;SDS_P1;SDS_P2;PMS_P1;PMS_P2;Temp;Humidity;BMP_temperature;BMP_pressure;BME280_temperature;BME280_humidity;BME280_pressure;Samples;Min_cycle;Max_cycle;Signal;HPM_P1;HPM_P2
2022/03/29 00:00:41;;;;;;;15.80;10.55;;;;;;;;;;6318704;22;20030;-83
2022/03/29 00:03:08;;;;;;;19.08;12.55;;;;;;;;;;6318559;22;19995;-83
2022/03/29 00:05:35;;;;;;;19.02;11.43;;;;;;;;;;6291416;22;20003;-83
2022/03/29 00:08:02;;;;;;;17.50;11.52;;;;;;;;;;6318515;22;19995;-83
2022/03/29 00:10:28;;;;;;;19.80;11.77;;;;;;;;;;6318670;22;20056;-83
2022/03/29 00:15:57;;;;;;;16.60;10.68;;;;;;;;;;6319289;22;20023;-83
2022/03/29 00:18:23;;;;;;;19.30;12.40;;;;;;;;;;6319029;22;20007;-83
2022/03/29 00:20:51;;;;;;;17.77;11.10;;;;;;;;;;6319394;22;19996;-83
2022/03/29 00:23:18;;;;;;;20.40;11.15;;;;;;;;;;6319153;22;19999;-83
2022/03/29 00:25:44;;;;;;;18.25;11.02;;;;;;;;;;6318724;22;20003;-81
2022/03/29 00:28:10;;;;;;;18.52;11.98;;;;;;;;;;6318947;22;20021;-81
2022/03/29 00:30:36;;;;;;;19.88;12.32;;;;;;;;;;6291173;22;20014;-81
2022/03/29 00:33:02;;;;;;;20.85;12.15;;;;;;;;;;6290787;22;20003;-80
2022/03/29 00:35:28;;;;;;;19.10;11.30;;;;;;;;;;6291168;22;20000;-83
2022/03/29 00:37:55;;;;;;;19.35;12.75;;;;;;;;;;6318523;22;20087;-83
2022/03/29 00:40:21;;;;;;;19.15;12.38;;;;;;;;;;6290713;22;20082;-83
2022/03/29 00:42:47;;;;;;;20.75;11.88;;;;;;;;;;6318222;22;20002;-83
2022/03/29 00:45:13;;;;;;;20.48;12.70;;;;;;;;;;6317884;22;19999;-83
2022/03/29 00:47:39;;;;;;;20.63;11.60;;;;;;;;;;6319089;22;20003;-83
2022/03/29 00:50:05;;;;;;;21.30;13.00;;;;;;;;;;6317970;22;20007;-83
2022/03/29 00:52:32;;;;;;;20.98;12.98;;;;;;;;;;6318833;22;19999;-83
2022/03/29 00:54:59;;;;;;;20.63;12.30;;;;;;;;;;6317998;22;19999;-83
2022/03/29 00:57:27;;;;;;;18.48;11.98;;;;;;;;;;6290291;22;19999;-83
2022/03/29 00:59:54;;;;;;;18.42;11.52;;;;;;;;;;6317533;22;20442;-83
2022/03/29 01:02:20;;;;;;;20.05;12.60;;;;;;;;;;6291010;22;20019;-83
2022/03/29 01:04:46;;;;;;;18.77;12.15;;;;;;;;;;6318741;22;20052;-83
2022/03/29 01:07:12;;;;;;;18.08;11.38;;;;;;;;;;6314472;22;19999;-83
2022/03/29 01:09:38;;;;;;;23.23;12.85;;;;;;;;;;6316645;22;20003;-83
2022/03/29 01:12:05;;;;;;;19.17;12.00;;;;;;;;;;6318241;22;20057;-83
2022/03/29 01:14:32;;;;;;;18.38;12.00;;;;;;;;;;6290809;22;20014;-81
2022/03/29 01:19:43;;;;;;;17.02;12.10;;;;;;;;;;6318620;22;20434;-80
2022/03/29 01:22:10;;;;;;;18.33;11.95;;;;;;;;;;6320112;22;20004;-81
2022/03/29 01:24:37;;;;;;;19.08;12.55;;;;;;;;;;6291996;22;20194;-81
2022/03/29 01:27:04;;;;;;;21.25;12.98;;;;;;;;;;6292577;22;20010;-80
2022/03/29 01:29:31;;;;;;;20.58;12.90;;;;;;;;;;6318978;22;20003;-80
2022/03/29 01:31:58;;;;;;;19.30;13.23;;;;;;;;;;6292447;22;20053;-82
2022/03/29 01:34:24;;;;;;;20.45;12.57;;;;;;;;;;6319763;22;19999;-82
2022/03/29 01:36:50;;;;;;;18.73;12.20;;;;;;;;;;6320013;22;19996;-82
2022/03/29 01:39:16;;;;;;;18.25;11.48;;;;;;;;;;6292058;22;20054;-82
2022/03/29 01:41:43;;;;;;;21.40;13.15;;;;;;;;;;6320092;22;20002;-82
2022/03/29 01:44:09;;;;;;;21.23;11.82;;;;;;;;;;6319508;22;20011;-82
2022/03/29 01:46:36;;;;;;;21.30;12.65;;;;;;;;;;6291833;22;20454;-82
2022/03/29 01:49:02;;;;;;;19.48;12.00;;;;;;;;;;6290810;22;20721;-82
2022/03/29 01:51:28;;;;;;;20.42;11.50;;;;;;;;;;6317216;22;20007;-82
2022/03/29 01:53:56;;;;;;;21.58;11.40;;;;;;;;;;6316229;22;19999;-82
2022/03/29 01:56:22;;;;;;;21.00;12.88;;;;;;;;;;6317897;22;20045;-82
2022/03/29 01:58:48;;;;;;;22.38;11.90;;;;;;;;;;6317828;22;19999;-83
2022/03/29 02:01:15;;;;;;;19.23;13.40;;;;;;;;;;6291983;22;20018;-82
2022/03/29 02:03:41;;;;;;;19.05;11.90;;;;;;;;;;6319198;22;19999;-82
2022/03/29 02:06:08;;;;;;;24.77;11.98;;;;;;;;;;6319524;22;20009;-82
2022/03/29 02:08:34;;;;;;;18.67;12.05;;;;;;;;;;6292706;22;20010;-82
2022/03/29 02:11:00;;;;;;;20.33;11.90;;;;;;;;;;6319246;22;20091;-82
2022/03/29 02:13:27;;;;;;;19.60;12.23;;;;;;;;;;6319545;22;20121;-82
2022/03/29 02:15:53;;;;;;;19.92;11.63;;;;;;;;;;6291146;22;19999;-82
2022/03/29 02:18:19;;;;;;;20.42;11.57;;;;;;;;;;6320110;22;20002;-82
2022/03/29 02:20:45;;;;;;;23.88;12.63;;;;;;;;;;6319475;22;20019;-82
2022/03/29 02:23:14;;;;;;;21.10;12.77;;;;;;;;;;6319506;22;20434;-82
2022/03/29 02:25:40;;;;;;;19.48;11.35;;;;;;;;;;6319599;22;20089;-82
2022/03/29 02:28:06;;;;;;;17.70;11.65;;;;;;;;;;6318739;22;19999;-82
2022/03/29 02:30:32;;;;;;;19.60;12.20;;;;;;;;;;6319069;22;19995;-82
2022/03/29 02:32:59;;;;;;;18.75;11.13;;;;;;;;;;6318793;22;19995;-82
2022/03/29 02:35:25;;;;;;;19.15;11.88;;;;;;;;;;6320041;22;20030;-82
2022/03/29 02:37:51;;;;;;;17.88;10.95;;;;;;;;;;6319240;22;19995;-82
2022/03/29 02:40:17;;;;;;;20.95;12.07;;;;;;;;;;6324095;22;19999;-82
2022/03/29 02:42:49;;;;;;;20.55;12.57;;;;;;;;;;6328892;22;19995;-83
2022/03/29 02:45:16;;;;;;;19.95;13.15;;;;;;;;;;6321007;22;20003;-82
2022/03/29 02:47:43;;;;;;;22.38;13.27;;;;;;;;;;6324596;22;20001;-82
2022/03/29 02:50:10;;;;;;;20.67;12.63;;;;;;;;;;6329269;22;20003;-82
2022/03/29 02:52:42;;;;;;;19.83;11.90;;;;;;;;;;6326417;22;20000;-82
2022/03/29 02:55:09;;;;;;;17.65;12.30;;;;;;;;;;6292679;22;20086;-82
2022/03/29 02:57:35;;;;;;;18.67;11.82;;;;;;;;;;6319684;22;20000;-83
2022/03/29 03:00:01;;;;;;;21.25;12.30;;;;;;;;;;6318812;22;19999;-82
2022/03/29 03:02:27;;;;;;;20.98;12.27;;;;;;;;;;6319881;22;20010;-82
2022/03/29 03:04:53;;;;;;;19.30;12.73;;;;;;;;;;6291917;22;20102;-82
2022/03/29 03:07:19;;;;;;;17.45;11.52;;;;;;;;;;6291687;22;20037;-82
2022/03/29 03:09:45;;;;;;;19.55;12.35;;;;;;;;;;6318671;22;20033;-83
2022/03/29 03:12:11;;;;;;;22.55;13.18;;;;;;;;;;6319720;22;20006;-82
2022/03/29 03:14:37;;;;;;;20.35;11.43;;;;;;;;;;6319373;22;20019;-82
2022/03/29 03:17:03;;;;;;;17.60;11.40;;;;;;;;;;6319192;22;20067;-83
2022/03/29 03:19:29;;;;;;;18.70;11.38;;;;;;;;;;6319028;22;19999;-82
2022/03/29 03:21:55;;;;;;;19.13;11.40;;;;;;;;;;6319268;22;20029;-82
2022/03/29 03:24:21;;;;;;;15.90;10.75;;;;;;;;;;6318161;22;20003;-82
2022/03/29 03:26:47;;;;;;;18.80;12.68;;;;;;;;;;6319018;22;20047;-82
2022/03/29 03:29:13;;;;;;;21.48;14.50;;;;;;;;;;6318309;22;19999;-82
2022/03/29 03:31:39;;;;;;;19.45;11.52;;;;;;;;;;6290619;22;20367;-82
2022/03/29 03:34:05;;;;;;;23.50;13.40;;;;;;;;;;6317035;22;19999;-82
2022/03/29 03:36:31;;;;;;;20.40;12.63;;;;;;;;;;6290839;22;20034;-82
2022/03/29 03:38:57;;;;;;;19.20;11.55;;;;;;;;;;6318433;22;20002;-82
2022/03/29 03:41:23;;;;;;;21.50;12.80;;;;;;;;;;6317859;22;20000;-81
2022/03/29 03:43:49;;;;;;;23.70;12.95;;;;;;;;;;6318010;22;20007;-82
2022/03/29 03:46:15;;;;;;;18.80;11.95;;;;;;;;;;6302298;22;20006;-81
2022/03/29 03:48:41;;;;;;;21.55;12.23;;;;;;;;;;6331748;22;20428;-82
2022/03/29 03:51:07;;;;;;;22.67;12.93;;;;;;;;;;6304116;22;20031;-82
2022/03/29 03:53:33;;;;;;;20.25;11.93;;;;;;;;;;6330934;22;19999;-81
2022/03/29 03:56:00;;;;;;;22.63;13.20;;;;;;;;;;6331356;22;20041;-82
2022/03/29 03:58:26;;;;;;;22.88;13.30;;;;;;;;;;6325885;22;20054;-82
2022/03/29 04:00:52;;;;;;;18.05;12.07;;;;;;;;;;6318319;22;20056;-82
2022/03/29 04:03:18;;;;;;;26.55;13.88;;;;;;;;;;6318220;22;20006;-81
2022/03/29 04:05:44;;;;;;;22.02;12.73;;;;;;;;;;6318720;22;20021;-82
2022/03/29 04:08:10;;;;;;;20.50;12.73;;;;;;;;;;6318483;22;19999;-82
2022/03/29 04:10:37;;;;;;;22.77;12.50;;;;;;;;;;6317733;22;20027;-83
2022/03/29 04:13:04;;;;;;;26.52;13.50;;;;;;;;;;6290888;22;19999;-83
2022/03/29 04:15:30;;;;;;;20.80;13.02;;;;;;;;;;6317348;22;20006;-82
2022/03/29 04:18:00;;;;;;;21.35;12.65;;;;;;;;;;6289985;22;20023;-82
2022/03/29 04:20:26;;;;;;;21.90;12.82;;;;;;;;;;6289820;22;20003;-81
2022/03/29 04:22:52;;;;;;;20.95;13.20;;;;;;;;;;6290286;22;20014;-82
2022/03/29 04:25:18;;;;;;;24.85;14.32;;;;;;;;;;6324192;22;20007;-82
2022/03/29 04:27:44;;;;;;;22.75;13.25;;;;;;;;;;6301943;22;20054;-83
2022/03/29 04:30:10;;;;;;;20.02;12.93;;;;;;;;;;6328574;22;19999;-81
2022/03/29 04:32:37;;;;;;;21.33;12.98;;;;;;;;;;6328180;22;20031;-82
2022/03/29 04:35:04;;;;;;;24.63;13.80;;;;;;;;;;6296517;22;20008;-82
2022/03/29 04:37:30;;;;;;;25.13;15.45;;;;;;;;;;6319008;22;19999;-83
2022/03/29 04:39:56;;;;;;;26.48;15.50;;;;;;;;;;6318900;22;20026;-82
2022/03/29 04:42:22;;;;;;;26.63;14.65;;;;;;;;;;6320484;22;20128;-82
2022/03/29 04:44:48;;;;;;;27.38;14.43;;;;;;;;;;6318710;22;20069;-81
2022/03/29 04:47:14;;;;;;;24.52;14.45;;;;;;;;;;6318739;22;20003;-81
2022/03/29 04:49:40;;;;;;;23.45;13.75;;;;;;;;;;6318403;22;20075;-82
2022/03/29 04:52:06;;;;;;;22.55;13.55;;;;;;;;;;6318409;22;20011;-81
2022/03/29 04:54:32;;;;;;;23.20;14.27;;;;;;;;;;6321392;22;20000;-81
2022/03/29 04:57:00;;;;;;;25.30;14.10;;;;;;;;;;6321964;22;20428;-81
2022/03/29 04:59:26;;;;;;;23.25;13.07;;;;;;;;;;6294591;22;19999;-81
2022/03/29 05:01:52;;;;;;;26.08;13.38;;;;;;;;;;6320777;22;20319;-81
2022/03/29 05:04:19;;;;;;;22.20;12.73;;;;;;;;;;6320776;22;20078;-81
2022/03/29 05:06:45;;;;;;;24.00;13.75;;;;;;;;;;6318028;22;20007;-81
2022/03/29 05:09:11;;;;;;;20.73;12.82;;;;;;;;;;6290030;22;20003;-81
2022/03/29 05:11:37;;;;;;;21.42;12.70;;;;;;;;;;6290741;22;20025;-81
2022/03/29 05:14:03;;;;;;;21.25;12.75;;;;;;;;;;6318311;22;19995;-81
2022/03/29 05:16:29;;;;;;;21.65;12.88;;;;;;;;;;6289458;22;20007;-81
2022/03/29 05:18:55;;;;;;;26.65;13.50;;;;;;;;;;6316418;22;20015;-81
2022/03/29 05:21:21;;;;;;;22.27;12.82;;;;;;;;;;6318319;22;20002;-81
2022/03/29 05:23:47;;;;;;;23.95;13.43;;;;;;;;;;6291134;22;20003;-82
2022/03/29 05:26:13;;;;;;;22.20;14.40;;;;;;;;;;6293095;22;20003;-81
2022/03/29 05:28:40;;;;;;;25.75;14.18;;;;;;;;;;6320172;22;20438;-82
2022/03/29 05:31:06;;;;;;;25.95;13.80;;;;;;;;;;6319849;22;20006;-82
2022/03/29 05:33:32;;;;;;;21.60;13.25;;;;;;;;;;6318229;22;20006;-82
2022/03/29 05:35:58;;;;;;;22.13;14.57;;;;;;;;;;6319468;22;19995;-81
2022/03/29 05:38:24;;;;;;;25.40;13.45;;;;;;;;;;6292392;22;20007;-81
2022/03/29 05:40:50;;;;;;;22.25;13.85;;;;;;;;;;6319536;22;19999;-82
2022/03/29 05:43:17;;;;;;;29.33;13.40;;;;;;;;;;6292727;22;20003;-81
2022/03/29 05:45:45;;;;;;;19.90;12.30;;;;;;;;;;6293116;22;19999;-81
2022/03/29 05:50:55;;;;;;;28.15;14.43;;;;;;;;;;6320269;22;20006;-82
2022/03/29 05:53:23;;;;;;;25.17;14.05;;;;;;;;;;6322608;22;20363;-82
2022/03/29 05:55:50;;;;;;;24.75;13.00;;;;;;;;;;6321134;22;19996;-82
2022/03/29 05:58:17;;;;;;;25.67;12.80;;;;;;;;;;6320766;22;19995;-82
2022/03/29 06:00:43;;;;;;;25.83;14.40;;;;;;;;;;6319118;22;20014;-82
2022/03/29 06:03:10;;;;;;;23.83;13.57;;;;;;;;;;6320259;22;19995;-82
2022/03/29 06:05:36;;;;;;;25.10;13.07;;;;;;;;;;6292456;22;20040;-82
2022/03/29 06:08:02;;;;;;;23.00;13.65;;;;;;;;;;6319759;22;20003;-82
2022/03/29 06:10:28;;;;;;;21.35;12.65;;;;;;;;;;6320404;22;20052;-81
2022/03/29 06:12:54;;;;;;;28.08;15.52;;;;;;;;;;6320026;22;20003;-81
2022/03/29 06:15:20;;;;;;;28.88;17.58;;;;;;;;;;6292525;22;20004;-81
2022/03/29 06:17:46;;;;;;;30.50;17.20;;;;;;;;;;6292194;22;20019;-82
2022/03/29 06:20:13;;;;;;;37.85;16.05;;;;;;;;;;6319643;22;19999;-81
2022/03/29 06:22:42;;;;;;;32.15;16.92;;;;;;;;;;6292790;22;20083;-82
2022/03/29 06:25:08;;;;;;;34.90;16.80;;;;;;;;;;6319795;22;20483;-81
2022/03/29 06:27:34;;;;;;;32.30;16.83;;;;;;;;;;6319155;22;20019;-81
2022/03/29 06:30:01;;;;;;;32.55;16.95;;;;;;;;;;6320603;22;20027;-81
2022/03/29 06:32:27;;;;;;;35.33;17.00;;;;;;;;;;6293534;22;20315;-81
2022/03/29 06:34:53;;;;;;;38.05;16.75;;;;;;;;;;6291273;22;20031;-81
2022/03/29 06:37:19;;;;;;;32.15;16.40;;;;;;;;;;6320444;22;19996;-81
2022/03/29 06:39:45;;;;;;;28.63;16.08;;;;;;;;;;6319027;22;20022;-81
2022/03/29 06:42:11;;;;;;;37.60;16.25;;;;;;;;;;6319279;22;19995;-81
2022/03/29 06:44:38;;;;;;;26.02;15.25;;;;;;;;;;6320262;22;20343;-81
2022/03/29 06:47:06;;;;;;;40.28;17.33;;;;;;;;;;6320876;22;20003;-81
2022/03/29 06:49:32;;;;;;;30.30;15.93;;;;;;;;;;6320277;22;19999;-81
2022/03/29 06:51:58;;;;;;;26.85;15.43;;;;;;;;;;6319745;22;20010;-81
2022/03/29 06:54:24;;;;;;;30.10;17.27;;;;;;;;;;6318774;22;20455;-81
2022/03/29 06:56:50;;;;;;;27.38;15.57;;;;;;;;;;6318951;22;20304;-81
2022/03/29 06:59:16;;;;;;;24.88;16.02;;;;;;;;;;6319094;22;20316;-81
2022/03/29 07:01:42;;;;;;;31.30;16.98;;;;;;;;;;6317289;22;20041;-81
2022/03/29 07:04:09;;;;;;;27.33;16.48;;;;;;;;;;6318310;22;20148;-81
2022/03/29 07:06:35;;;;;;;23.85;15.73;;;;;;;;;;6292186;22;20002;-81
2022/03/29 07:11:46;;;;;;;28.55;17.48;;;;;;;;;;6319396;22;20041;-81
2022/03/29 07:14:13;;;;;;;30.50;15.85;;;;;;;;;;6319009;22;20007;-81
2022/03/29 07:19:43;;;;;;;24.17;14.65;;;;;;;;;;6319255;22;20002;-81
2022/03/29 07:22:09;;;;;;;26.83;14.70;;;;;;;;;;6292314;22;20000;-81
2022/03/29 07:24:35;;;;;;;26.83;14.32;;;;;;;;;;6319726;22;20363;-81
2022/03/29 07:27:01;;;;;;;22.80;14.35;;;;;;;;;;6319848;22;20000;-81
2022/03/29 07:29:28;;;;;;;23.38;14.20;;;;;;;;;;6319709;22;20000;-81
2022/03/29 07:31:54;;;;;;;33.35;14.25;;;;;;;;;;6291414;22;20009;-81
2022/03/29 07:34:20;;;;;;;24.85;14.43;;;;;;;;;;6318723;22;19999;-82
2022/03/29 07:36:48;;;;;;;19.70;12.45;;;;;;;;;;6318043;22;19999;-81
2022/03/29 07:39:14;;;;;;;20.10;12.70;;;;;;;;;;6289796;22;19999;-81
2022/03/29 07:41:40;;;;;;;20.85;13.32;;;;;;;;;;6318516;22;20062;-82
2022/03/29 07:44:07;;;;;;;22.40;13.48;;;;;;;;;;6290088;22;20014;-82
2022/03/29 07:46:33;;;;;;;21.27;13.80;;;;;;;;;;6316091;22;20049;-82
2022/03/29 07:48:59;;;;;;;20.85;13.77;;;;;;;;;;6315117;22;20004;-81
2022/03/29 07:51:25;;;;;;;19.50;12.65;;;;;;;;;;6316459;22;20003;-81
2022/03/29 07:53:51;;;;;;;18.67;12.60;;;;;;;;;;6316457;22;20003;-80
2022/03/29 07:56:17;;;;;;;20.67;13.57;;;;;;;;;;6315256;22;19999;-81
2022/03/29 07:58:43;;;;;;;19.60;13.90;;;;;;;;;;6316123;22;20002;-80
2022/03/29 08:01:09;;;;;;;21.42;13.43;;;;;;;;;;6316632;22;20011;-81
2022/03/29 08:06:38;;;;;;;;;;;;;;;;;;6316638;22;20393;-83
2022/03/29 08:09:05;;;;;;;19.05;12.38;;;;;;;;;;6310667;22;19907;-83
2022/03/29 08:11:31;;;;;;;17.50;12.38;;;;;;;;;;6285202;22;20011;-83
2022/03/29 08:13:57;;;;;;;20.50;13.10;;;;;;;;;;6313301;22;20082;-83
2022/03/29 08:16:23;;;;;;;20.23;13.45;;;;;;;;;;6314646;22;20003;-82
2022/03/29 08:18:49;;;;;;;19.80;12.50;;;;;;;;;;6311984;22;19999;-82
2022/03/29 08:24:01;;;;;;;18.10;12.85;;;;;;;;;;6315079;22;20352;-83
2022/03/29 08:26:27;;;;;;;23.23;12.90;;;;;;;;;;6288531;22;20064;-83
2022/03/29 08:28:53;;;;;;;18.48;12.43;;;;;;;;;;6312453;22;20081;-82
2022/03/29 08:31:19;;;;;;;18.63;12.07;;;;;;;;;;6287010;22;20003;-82
2022/03/29 08:33:45;;;;;;;18.77;12.43;;;;;;;;;;6315005;22;20008;-82
2022/03/29 08:36:11;;;;;;;19.55;11.70;;;;;;;;;;6314927;22;19995;-82
2022/03/29 08:38:37;;;;;;;17.42;11.57;;;;;;;;;;6314894;22;20078;-82
2022/03/29 08:41:04;;;;;;;18.90;12.65;;;;;;;;;;6314970;22;20003;-82
2022/03/29 08:43:30;;;;;;;19.60;12.68;;;;;;;;;;6315829;22;19995;-83
2022/03/29 08:45:57;;;;;;;21.40;13.65;;;;;;;;;;6315330;22;20017;-83
2022/03/29 08:48:24;;;;;;;19.10;12.63;;;;;;;;;;6288378;22;20008;-83
2022/03/29 08:50:51;;;;;;;18.35;12.50;;;;;;;;;;6291732;22;20198;-83
2022/03/29 08:53:19;;;;;;;18.67;12.65;;;;;;;;;;6318897;22;19996;-82
2022/03/29 08:55:46;;;;;;;19.10;12.10;;;;;;;;;;6316402;22;20014;-83
2022/03/29 08:58:12;;;;;;;18.20;11.35;;;;;;;;;;6315763;22;19995;-82
2022/03/29 09:00:38;;;;;;;17.30;12.70;;;;;;;;;;6316289;22;20102;-83
2022/03/29 09:03:05;;;;;;;16.52;12.07;;;;;;;;;;6316091;22;19995;-83
2022/03/29 09:05:31;;;;;;;19.00;11.73;;;;;;;;;;6317705;22;20003;-84
2022/03/29 09:08:03;;;;;;;19.70;11.32;;;;;;;;;;6320462;22;19999;-83
2022/03/29 09:10:48;;;;;;;15.95;9.85;;;;;;;;;;6315725;22;20328;-83
2022/03/29 09:13:24;;;;;;;17.63;10.50;;;;;;;;;;6316390;22;20000;-84
2022/03/29 09:15:54;;;;;;;16.65;10.02;;;;;;;;;;6315834;22;20000;-83
2022/03/29 09:18:20;;;;;;;18.05;11.32;;;;;;;;;;6315263;22;20065;-83
2022/03/29 09:20:47;;;;;;;18.50;11.45;;;;;;;;;;6315891;22;20014;-83
2022/03/29 09:23:17;;;;;;;15.73;10.55;;;;;;;;;;6315669;22;20000;-83
2022/03/29 09:25:47;;;;;;;16.38;11.32;;;;;;;;;;6316129;22;20022;-82
2022/03/29 09:28:20;;;;;;;16.58;10.60;;;;;;;;;;6316306;22;19995;-83
2022/03/29 09:30:46;;;;;;;;;;;;;;;;;;6316915;22;20026;-82
2022/03/29 09:33:13;;;;;;;17.30;10.48;;;;;;;;;;6316826;22;19899;-83
2022/03/29 09:35:54;;;;;;;16.40;11.27;;;;;;;;;;6316016;22;20030;-83
2022/03/29 09:38:41;;;;;;;16.67;10.73;;;;;;;;;;6315626;22;20015;-82
2022/03/29 09:41:28;;;;;;;15.63;10.38;;;;;;;;;;6314951;22;20055;-83
2022/03/29 09:44:07;;;;;;;16.27;10.65;;;;;;;;;;6289586;22;20108;-85
2022/03/29 09:46:52;;;;;;;16.85;10.38;;;;;;;;;;6316221;22;20022;-84
2022/03/29 09:49:19;;;;;;;15.82;10.57;;;;;;;;;;6316784;22;20006;-85
2022/03/29 09:51:46;;;;;;;16.73;11.05;;;;;;;;;;6316903;22;20385;-82
2022/03/29 09:54:12;;;;;;;17.55;11.65;;;;;;;;;;6316813;22;20026;-82
2022/03/29 09:56:38;;;;;;;17.42;11.02;;;;;;;;;;6318390;22;20003;-84
2022/03/29 09:59:06;;;;;;;18.95;11.10;;;;;;;;;;6319410;22;20070;-83
2022/03/29 10:01:32;;;;;;;14.73;10.32;;;;;;;;;;6316334;22;20443;-83
2022/03/29 10:04:01;;;;;;;16.02;10.00;;;;;;;;;;6290463;22;20003;-83
2022/03/29 10:06:27;;;;;;;14.60;10.15;;;;;;;;;;6315924;22;20007;-82
2022/03/29 10:11:43;;;;;;;14.95;10.05;;;;;;;;;;6316585;22;20014;-83
2022/03/29 10:14:12;;;;;;;17.00;10.98;;;;;;;;;;6317595;22;20516;-82
2022/03/29 10:16:38;;;;;;;15.23;10.65;;;;;;;;;;6317512;22;20420;-83
2022/03/29 10:19:05;;;;;;;17.17;11.05;;;;;;;;;;6316188;22;20042;-82
2022/03/29 10:21:31;;;;;;;15.90;10.00;;;;;;;;;;6288868;22;19999;-82
2022/03/29 10:23:59;;;;;;;14.23;9.90;;;;;;;;;;6316592;22;20003;-84
2022/03/29 10:26:27;;;;;;;13.73;9.68;;;;;;;;;;6316507;22;20034;-83
2022/03/29 10:28:53;;;;;;;16.35;11.20;;;;;;;;;;6317106;22;20006;-83
2022/03/29 10:31:28;;;;;;;16.00;10.82;;;;;;;;;;6316326;22;20011;-84
2022/03/29 10:34:13;;;;;;;16.75;10.50;;;;;;;;;;6316799;22;20010;-84
2022/03/29 10:36:58;;;;;;;19.67;10.93;;;;;;;;;;6316671;22;20002;-84
2022/03/29 10:39:24;;;;;;;15.35;10.85;;;;;;;;;;6316205;22;20006;-83
2022/03/29 10:41:50;;;;;;;17.30;10.52;;;;;;;;;;6316521;22;20254;-84
2022/03/29 10:44:17;;;;;;;18.25;10.98;;;;;;;;;;6316503;22;20048;-82
2022/03/29 10:46:47;;;;;;;15.18;10.80;;;;;;;;;;6314687;22;20000;-83
2022/03/29 10:49:21;;;;;;;16.40;11.15;;;;;;;;;;6314639;22;19996;-83
2022/03/29 10:51:51;;;;;;;16.00;10.85;;;;;;;;;;6315905;22;19999;-84
2022/03/29 10:54:23;;;;;;;14.38;10.07;;;;;;;;;;6315050;22;19999;-84
2022/03/29 10:56:57;;;;;;;14.52;9.82;;;;;;;;;;6316677;22;20000;-83
2022/03/29 10:59:23;;;;;;;16.05;10.45;;;;;;;;;;6315486;22;20004;-83
2022/03/29 11:02:06;;;;;;;15.80;10.30;;;;;;;;;;6315701;22;20003;-83
2022/03/29 11:04:33;;;;;;;19.10;12.50;;;;;;;;;;6315177;22;20135;-83
2022/03/29 11:07:05;;;;;;;15.82;11.32;;;;;;;;;;6315595;22;20009;-83
2022/03/29 11:09:31;;;;;;;15.50;10.23;;;;;;;;;;6316152;22;19999;-82
2022/03/29 11:11:58;;;;;;;16.20;10.88;;;;;;;;;;6315403;22;19999;-85
2022/03/29 11:14:31;;;;;;;17.40;11.60;;;;;;;;;;6315260;22;20007;-83
2022/03/29 11:17:09;;;;;;;17.42;12.20;;;;;;;;;;6314539;22;20006;-83
2022/03/29 11:19:39;;;;;;;17.38;11.82;;;;;;;;;;6314712;22;20002;-83
2022/03/29 11:22:24;;;;;;;16.48;11.27;;;;;;;;;;6314268;22;20492;-84
2022/03/29 11:24:51;;;;;;;17.88;11.65;;;;;;;;;;6285966;22;20470;-83
2022/03/29 11:27:21;;;;;;;18.77;11.63;;;;;;;;;;6285484;22;20007;-83
2022/03/29 11:29:47;;;;;;;16.00;11.63;;;;;;;;;;6287289;22;20009;-82
2022/03/29 11:32:14;;;;;;;16.85;10.82;;;;;;;;;;6316820;22;19999;-82
2022/03/29 11:34:40;;;;;;;29.50;12.82;;;;;;;;;;6315668;22;20003;-83
2022/03/29 11:37:07;;;;;;;18.10;12.18;;;;;;;;;;6315555;22;19995;-82
2022/03/29 11:39:33;;;;;;;20.38;12.05;;;;;;;;;;6313456;22;19999;-82
2022/03/29 11:41:59;;;;;;;17.38;11.60;;;;;;;;;;6318481;22;19996;-81
2022/03/29 11:44:26;;;;;;;17.35;11.50;;;;;;;;;;6326921;22;20039;-82
2022/03/29 11:46:53;;;;;;;20.77;12.13;;;;;;;;;;6302333;22;20002;-84
2022/03/29 11:49:20;;;;;;;15.82;11.75;;;;;;;;;;6327269;22;20003;-84
2022/03/29 11:52:02;;;;;;;18.10;11.73;;;;;;;;;;6322683;22;20070;-83
2022/03/29 11:54:28;;;;;;;16.35;11.70;;;;;;;;;;6319013;22;20007;-83
2022/03/29 11:56:54;;;;;;;19.92;12.45;;;;;;;;;;6316459;22;20703;-83
2022/03/29 11:59:20;;;;;;;21.85;12.95;;;;;;;;;;6287645;22;20446;-83
2022/03/29 12:01:47;;;;;;;16.02;11.75;;;;;;;;;;6315406;22;20077;-84
2022/03/29 12:04:13;;;;;;;15.23;10.60;;;;;;;;;;6315250;22;20000;-84
2022/03/29 12:06:46;;;;;;;13.75;10.50;;;;;;;;;;6287998;22;20067;-83
2022/03/29 12:09:16;;;;;;;15.90;10.82;;;;;;;;;;6315474;22;19999;-83
2022/03/29 12:11:43;;;;;;;17.67;10.73;;;;;;;;;;6315012;22;20500;-84
2022/03/29 12:14:09;;;;;;;19.08;11.57;;;;;;;;;;6315744;22;20311;-84
2022/03/29 12:16:39;;;;;;;17.02;11.07;;;;;;;;;;6313955;22;20002;-84
2022/03/29 12:19:08;;;;;;;14.40;10.68;;;;;;;;;;6315853;22;20047;-83
2022/03/29 12:21:34;;;;;;;18.40;12.70;;;;;;;;;;6328465;22;20013;-83
2022/03/29 12:24:02;;;;;;;16.88;11.82;;;;;;;;;;6328827;22;20003;-83
2022/03/29 12:26:28;;;;;;;16.08;12.05;;;;;;;;;;6327974;22;20082;-83
2022/03/29 12:28:54;;;;;;;17.83;12.55;;;;;;;;;;6324553;22;20099;-83
2022/03/29 12:31:21;;;;;;;16.40;11.65;;;;;;;;;;6314275;22;20006;-82
2022/03/29 12:33:47;;;;;;;15.75;11.57;;;;;;;;;;6313553;22;20034;-83
2022/03/29 12:36:15;;;;;;;14.90;11.40;;;;;;;;;;6313711;22;20403;-83
2022/03/29 12:38:41;;;;;;;16.27;11.52;;;;;;;;;;6311596;22;19999;-83
2022/03/29 12:41:08;;;;;;;17.75;12.05;;;;;;;;;;6314123;22;20041;-84
2022/03/29 12:43:35;;;;;;;16.48;10.65;;;;;;;;;;6286033;22;20010;-83
2022/03/29 12:46:01;;;;;;;14.63;10.73;;;;;;;;;;6312776;22;19995;-83
2022/03/29 12:48:28;;;;;;;17.27;11.88;;;;;;;;;;6313324;22;19999;-84
2022/03/29 12:50:54;;;;;;;17.10;11.63;;;;;;;;;;6285675;22;19999;-83
2022/03/29 12:53:20;;;;;;;16.40;11.60;;;;;;;;;;6312749;22;20087;-83
2022/03/29 12:55:54;;;;;;;16.90;12.18;;;;;;;;;;6312559;22;19996;-83
2022/03/29 12:58:29;;;;;;;16.65;11.40;;;;;;;;;;6313175;22;20438;-83
2022/03/29 13:00:56;;;;;;;16.67;10.82;;;;;;;;;;6285792;22;20050;-84
2022/03/29 13:03:22;;;;;;;16.85;11.00;;;;;;;;;;6312928;22;20067;-83
2022/03/29 13:05:48;;;;;;;16.23;10.80;;;;;;;;;;6312344;22;20265;-82
2022/03/29 13:08:21;;;;;;;17.75;11.00;;;;;;;;;;6311155;22;20014;-82
2022/03/29 13:10:50;;;;;;;18.13;10.88;;;;;;;;;;6312161;22;19995;-83
2022/03/29 13:13:21;;;;;;;16.48;11.05;;;;;;;;;;6312007;22;20064;-83
2022/03/29 13:15:54;;;;;;;16.38;11.85;;;;;;;;;;6313891;22;20006;-84
2022/03/29 13:18:30;;;;;;;16.02;11.88;;;;;;;;;;6315002;22;20403;-84
2022/03/29 13:21:07;;;;;;;15.82;10.93;;;;;;;;;;6315189;22;20007;-85
2022/03/29 13:23:33;;;;;;;17.63;10.60;;;;;;;;;;6314744;22;20354;-83
2022/03/29 13:26:00;;;;;;;14.25;10.05;;;;;;;;;;6315208;22;20018;-83
2022/03/29 13:28:26;;;;;;;17.25;10.73;;;;;;;;;;6314443;22;20002;-84
2022/03/29 13:30:52;;;;;;;20.27;11.05;;;;;;;;;;6314934;22;20000;-83
2022/03/29 13:33:18;;;;;;;16.55;10.95;;;;;;;;;;6287473;22;20030;-83
2022/03/29 13:35:45;;;;;;;15.75;10.43;;;;;;;;;;6315437;22;20010;-83
2022/03/29 13:38:11;;;;;;;14.77;9.85;;;;;;;;;;6312128;22;20331;-83
2022/03/29 13:40:37;;;;;;;17.88;10.15;;;;;;;;;;6313605;22;20092;-82
2022/03/29 13:43:03;;;;;;;13.60;9.50;;;;;;;;;;6313049;22;20423;-83
2022/03/29 13:45:30;;;;;;;14.90;9.38;;;;;;;;;;6315408;22;20003;-82
2022/03/29 13:47:57;;;;;;;13.10;9.23;;;;;;;;;;6315663;22;20087;-83
2022/03/29 13:50:23;;;;;;;14.75;9.13;;;;;;;;;;6314049;22;19999;-82
2022/03/29 13:52:49;;;;;;;17.02;9.98;;;;;;;;;;6286383;22;20011;-82
2022/03/29 13:55:15;;;;;;;13.48;9.80;;;;;;;;;;6314562;22;20339;-84
2022/03/29 13:57:41;;;;;;;15.10;9.57;;;;;;;;;;6314311;22;20398;-85
2022/03/29 14:00:08;;;;;;;16.23;9.82;;;;;;;;;;6313977;22;19999;-84
2022/03/29 14:02:36;;;;;;;12.35;9.25;;;;;;;;;;6312429;22;20354;-83
2022/03/29 14:05:02;;;;;;;13.98;9.35;;;;;;;;;;6285454;22;20316;-82
2022/03/29 14:07:28;;;;;;;13.52;9.60;;;;;;;;;;6314085;22;20067;-82
2022/03/29 14:09:55;;;;;;;13.05;9.35;;;;;;;;;;6313849;22;20007;-83
2022/03/29 14:12:21;;;;;;;14.82;9.63;;;;;;;;;;6315270;22;20037;-84
2022/03/29 14:14:47;;;;;;;14.32;10.25;;;;;;;;;;6314026;22;20003;-84
2022/03/29 14:17:14;;;;;;;14.00;10.00;;;;;;;;;;6314253;22;20069;-85
2022/03/29 14:19:40;;;;;;;13.90;9.70;;;;;;;;;;6315313;22;20110;-82
2022/03/29 14:22:06;;;;;;;14.40;9.77;;;;;;;;;;6313091;22;20018;-82
2022/03/29 14:24:32;;;;;;;14.80;9.45;;;;;;;;;;6313870;22;20362;-85
2022/03/29 14:26:59;;;;;;;17.48;9.75;;;;;;;;;;6312702;22;20018;-83
2022/03/29 14:29:31;;;;;;;15.82;10.40;;;;;;;;;;6286409;22;20033;-84
2022/03/29 14:31:59;;;;;;;15.23;9.88;;;;;;;;;;6312892;22;19999;-84
2022/03/29 14:34:26;;;;;;;13.82;9.45;;;;;;;;;;6314604;22;20338;-85
2022/03/29 14:36:52;;;;;;;13.88;9.68;;;;;;;;;;6286230;22;20013;-83
2022/03/29 14:39:18;;;;;;;16.33;9.77;;;;;;;;;;6315607;22;20023;-82
2022/03/29 14:41:45;;;;;;;12.80;9.20;;;;;;;;;;6315835;22;20336;-85